createdAt,value
2022-09-26T00:01:37.017Z,8.13
2022-09-26T00:06:34.972Z,7.88
2022-09-26T00:09:02.643Z,8.77
2022-09-26T00:11:33.124Z,8.70
2022-09-26T00:14:04.453Z,8.75
2022-09-26T00:16:32.404Z,8.57
2022-09-26T00:19:00.319Z,8.55
2022-09-26T00:21:30.308Z,8.80
2022-09-26T00:23:59.053Z,8.80
2022-09-26T00:26:28.195Z,10.25
2022-09-26T00:28:56.879Z,9.43
2022-09-26T00:31:29.350Z,9.57
2022-09-26T00:33:57.270Z,9.27
2022-09-26T00:36:37.093Z,9.45
2022-09-26T00:39:06.647Z,9.55
2022-09-26T00:41:34.701Z,9.85
2022-09-26T00:44:02.669Z,9.70
2022-09-26T00:46:37.991Z,9.65
2022-09-26T00:49:23.226Z,10.65
2022-09-26T00:51:57.852Z,10.20
2022-09-26T00:54:28.511Z,10.65
2022-09-26T00:57:02.859Z,11.00
2022-09-26T00:59:35.293Z,9.93
2022-09-26T01:02:04.716Z,10.07
2022-09-26T01:04:35.947Z,10.32
2022-09-26T01:07:08.871Z,9.93
2022-09-26T01:09:37.668Z,9.82
2022-09-26T01:12:07.026Z,9.35
2022-09-26T01:14:36.434Z,8.57
2022-09-26T01:17:05.272Z,9.18
2022-09-26T01:19:55.846Z,8.75
2022-09-26T01:22:51.750Z,8.43
2022-09-26T01:25:50.089Z,8.13
2022-09-26T01:28:48.552Z,8.70
2022-09-26T01:31:30.677Z,8.05
2022-09-26T01:34:10.650Z,8.10
2022-09-26T01:36:54.957Z,8.27
2022-09-26T01:39:31.950Z,8.80
2022-09-26T01:42:14.746Z,7.95
2022-09-26T01:44:49.020Z,8.07
2022-09-26T01:47:25.910Z,8.18
2022-09-26T01:50:10.896Z,7.85
2022-09-26T01:52:49.472Z,8.18
2022-09-26T01:55:22.270Z,8.27
2022-09-26T01:58:10.531Z,7.80
2022-09-26T02:00:40.202Z,8.55
2022-09-26T02:03:15.197Z,6.90
2022-09-26T02:05:49.281Z,7.72
2022-09-26T02:08:24.752Z,7.57
2022-09-26T02:10:59.751Z,8.30
2022-09-26T02:13:32.909Z,7.25
2022-09-26T02:16:08.881Z,8.07
2022-09-26T02:18:44.815Z,8.05
2022-09-26T02:21:17.822Z,7.93
2022-09-26T02:26:13.798Z,7.85
2022-09-26T02:28:42.082Z,7.47
2022-09-26T02:31:11.161Z,7.85
2022-09-26T02:33:39.018Z,7.18
2022-09-26T02:36:10.471Z,7.32
2022-09-26T02:38:38.196Z,6.93
2022-09-26T02:41:31.134Z,7.00
2022-09-26T02:44:21.897Z,7.70
2022-09-26T02:47:20.035Z,6.85
2022-09-26T02:50:14.292Z,6.88
2022-09-26T02:52:54.652Z,7.20
2022-09-26T02:55:28.371Z,6.40
2022-09-26T02:58:19.472Z,7.18
2022-09-26T03:01:18.180Z,6.93
2022-09-26T03:04:14.917Z,7.72
2022-09-26T03:06:47.128Z,7.15
2022-09-26T03:09:17.333Z,7.20
2022-09-26T03:11:45.737Z,7.53
2022-09-26T03:14:15.314Z,7.47
2022-09-26T03:16:45.508Z,7.90
2022-09-26T03:19:22.729Z,7.30
2022-09-26T03:21:50.274Z,7.55
2022-09-26T03:24:17.879Z,7.25
2022-09-26T03:26:46.971Z,7.65
2022-09-26T03:29:14.652Z,7.82
2022-09-26T03:31:42.702Z,7.18
2022-09-26T03:34:10.316Z,7.55
2022-09-26T03:36:37.899Z,7.70
2022-09-26T03:39:05.946Z,7.38
2022-09-26T03:41:34.832Z,7.70
2022-09-26T03:44:03.588Z,7.85
2022-09-26T03:46:39.671Z,7.55
2022-09-26T03:49:07.551Z,7.45
2022-09-26T03:51:35.598Z,8.05
2022-09-26T03:54:03.934Z,7.93
2022-09-26T03:56:31.467Z,7.88
2022-09-26T03:58:59.015Z,8.63
2022-09-26T04:01:27.035Z,7.80
2022-09-26T04:03:54.537Z,8.13
2022-09-26T04:06:22.098Z,8.48
2022-09-26T04:08:51.513Z,8.88
2022-09-26T04:11:22.286Z,8.15
2022-09-26T04:13:53.778Z,8.13
2022-09-26T04:16:24.097Z,8.65
2022-09-26T04:18:56.920Z,8.55
2022-09-26T04:21:27.512Z,8.55
2022-09-26T04:23:55.561Z,9.10
2022-09-26T04:26:24.442Z,9.18
2022-09-26T04:28:55.359Z,9.07
2022-09-26T04:31:24.606Z,9.02
2022-09-26T04:33:52.464Z,8.82
2022-09-26T04:36:20.028Z,9.35
2022-09-26T04:38:48.838Z,9.13
2022-09-26T04:41:20.344Z,9.45
2022-09-26T04:43:50.249Z,8.57
2022-09-26T04:46:24.510Z,9.27
2022-09-26T04:48:55.356Z,8.70
2022-09-26T04:51:25.466Z,9.00
2022-09-26T04:53:53.417Z,8.70
2022-09-26T04:56:23.028Z,9.05
2022-09-26T04:58:50.799Z,8.73
2022-09-26T05:01:20.437Z,8.68
2022-09-26T05:03:48.617Z,8.13
2022-09-26T05:06:17.771Z,7.65
2022-09-26T05:08:46.998Z,7.75
2022-09-26T05:11:17.339Z,6.82
2022-09-26T05:13:46.037Z,6.10
2022-09-26T05:16:17.423Z,5.65
2022-09-26T05:18:49.322Z,6.10
2022-09-26T05:21:17.623Z,5.85
2022-09-26T05:24:00.470Z,5.50
2022-09-26T05:26:39.199Z,5.18
2022-09-26T05:29:09.118Z,5.43
2022-09-26T05:31:38.600Z,5.65
2022-09-26T05:34:08.100Z,5.07
2022-09-26T05:36:35.679Z,5.65
2022-09-26T05:39:05.379Z,5.30
2022-09-26T05:41:33.836Z,5.00
2022-09-26T05:44:01.616Z,4.60
2022-09-26T05:46:29.372Z,4.47
2022-09-26T05:48:57.369Z,4.00
2022-09-26T05:51:25.242Z,3.95
2022-09-26T05:53:53.299Z,3.53
2022-09-26T05:56:20.734Z,3.38
2022-09-26T05:58:48.277Z,3.22
2022-09-26T06:01:18.533Z,3.67
2022-09-26T06:03:47.306Z,2.97
2022-09-26T06:06:18.452Z,3.13
2022-09-26T06:08:47.035Z,3.22
2022-09-26T06:11:17.482Z,2.80
2022-09-26T06:13:46.080Z,3.20
2022-09-26T06:16:18.750Z,2.85
2022-09-26T06:18:47.668Z,3.30
2022-09-26T06:21:17.650Z,2.65
2022-09-26T06:23:46.072Z,2.05
2022-09-26T06:26:25.618Z,2.95
2022-09-26T06:28:58.401Z,2.20
2022-09-26T06:31:26.664Z,1.85
2022-09-26T06:33:54.537Z,2.10
2022-09-26T06:36:24.064Z,2.33
2022-09-26T06:38:53.880Z,2.28
2022-09-26T06:41:21.621Z,2.05
2022-09-26T06:43:50.123Z,1.70
2022-09-26T06:46:17.834Z,2.00
2022-09-26T06:48:45.492Z,1.73
2022-09-26T06:51:14.439Z,1.38
2022-09-26T06:53:44.795Z,1.33
2022-09-26T06:56:13.625Z,1.70
2022-09-26T06:58:42.028Z,1.30
2022-09-26T07:01:11.302Z,1.20
2022-09-26T07:03:44.414Z,1.95
2022-09-26T07:06:13.623Z,1.30
2022-09-26T07:09:01.610Z,1.50
2022-09-26T07:11:38.181Z,1.40
2022-09-26T07:14:17.458Z,1.38
2022-09-26T07:16:48.381Z,1.63
2022-09-26T07:19:17.224Z,1.80
2022-09-26T07:21:45.575Z,1.63
2022-09-26T07:24:14.492Z,1.42
2022-09-26T07:26:42.658Z,1.60
2022-09-26T07:29:10.764Z,1.50
2022-09-26T07:31:38.608Z,1.20
2022-09-26T07:34:07.885Z,1.63
2022-09-26T07:36:35.526Z,1.45
2022-09-26T07:39:03.064Z,1.40
2022-09-26T07:41:31.414Z,1.30
2022-09-26T07:47:02.488Z,1.40
2022-09-26T07:49:45.425Z,1.25
2022-09-26T07:52:12.999Z,1.23
2022-09-26T07:54:40.475Z,1.33
2022-09-26T07:57:08.019Z,1.50
2022-09-26T07:59:36.956Z,1.55
2022-09-26T08:02:04.702Z,1.80
2022-09-26T08:04:32.408Z,1.52
2022-09-26T08:07:01.651Z,1.40
2022-09-26T08:09:29.350Z,1.23
2022-09-26T08:11:57.327Z,1.75
2022-09-26T08:14:25.242Z,1.27
2022-09-26T08:16:56.350Z,1.02
2022-09-26T08:19:24.648Z,0.80
2022-09-26T08:21:52.402Z,0.90
2022-09-26T08:24:20.183Z,1.52
2022-09-26T08:26:47.717Z,0.82
2022-09-26T08:29:15.354Z,0.90
2022-09-26T08:31:43.301Z,1.00
2022-09-26T08:34:10.921Z,2.00
2022-09-26T08:36:38.825Z,1.50
2022-09-26T08:39:06.760Z,1.15
2022-09-26T08:42:04.997Z,0.82
2022-09-26T08:44:57.091Z,1.20
2022-09-26T08:47:41.033Z,1.02
2022-09-26T08:50:33.366Z,1.05
2022-09-26T08:53:10.029Z,1.00
2022-09-26T08:55:43.349Z,1.15
2022-09-26T08:58:25.330Z,1.25
2022-09-26T09:01:02.967Z,1.45
2022-09-26T09:03:35.233Z,1.10
2022-09-26T09:06:12.007Z,1.30
2022-09-26T09:08:45.952Z,1.35
2022-09-26T09:11:34.899Z,1.50
2022-09-26T09:14:28.533Z,1.55
2022-09-26T09:17:24.068Z,1.23
2022-09-26T09:20:10.585Z,2.30
2022-09-26T09:23:12.570Z,1.70
2022-09-26T09:27:52.438Z,1.50
2022-09-26T09:29:21.528Z,1.45
2022-09-26T09:31:49.642Z,1.50
2022-09-26T09:34:27.143Z,1.65
2022-09-26T09:36:59.557Z,1.60
2022-09-26T09:39:35.445Z,1.40
2022-09-26T09:42:13.493Z,1.17
2022-09-26T09:44:50.934Z,1.35
2022-09-26T09:47:21.072Z,1.48
2022-09-26T09:49:50.332Z,1.10
2022-09-26T09:52:41.927Z,1.27
2022-09-26T09:55:30.688Z,1.50
2022-09-26T09:58:12.402Z,1.38
2022-09-26T10:00:51.374Z,1.20
2022-09-26T10:03:39.068Z,1.45
2022-09-26T10:06:46.280Z,1.40
2022-09-26T10:08:57.544Z,1.50
2022-09-26T10:11:49.079Z,1.67
2022-09-26T10:14:29.816Z,1.35
2022-09-26T10:17:14.932Z,1.35
2022-09-26T10:19:44.622Z,1.20
2022-09-26T10:22:26.231Z,1.42
2022-09-26T10:25:02.487Z,1.20
2022-09-26T10:27:38.713Z,1.15
2022-09-26T10:30:30.332Z,1.13
2022-09-26T10:33:01.012Z,1.02
2022-09-26T10:35:44.746Z,1.27
2022-09-26T10:38:22.508Z,1.30
2022-09-26T10:40:55.545Z,1.00
2022-09-26T10:46:03.289Z,1.30
2022-09-26T10:48:48.519Z,1.20
2022-09-26T10:51:36.424Z,1.13
2022-09-26T10:54:12.322Z,1.70
2022-09-26T10:56:44.170Z,1.38
2022-09-26T10:59:15.321Z,1.30
2022-09-26T11:01:51.594Z,1.20
2022-09-26T11:04:38.780Z,1.10
2022-09-26T11:07:10.063Z,1.20
2022-09-26T11:09:38.639Z,1.10
2022-09-26T11:12:25.566Z,1.60
2022-09-26T11:15:05.843Z,1.48
2022-09-26T11:17:49.663Z,1.38
2022-09-26T11:20:52.577Z,1.40
2022-09-26T11:23:41.203Z,1.50
2022-09-26T11:26:32.420Z,1.48
2022-09-26T11:29:16.959Z,1.48
2022-09-26T11:31:46.287Z,1.25
2022-09-26T11:34:18.078Z,1.30
2022-09-26T11:37:19.397Z,1.60
2022-09-26T11:40:09.789Z,1.30
2022-09-26T11:42:59.810Z,1.70
2022-09-26T11:45:49.041Z,1.20
2022-09-26T11:48:42.324Z,1.63
2022-09-26T11:51:35.390Z,1.42
2022-09-26T11:54:21.836Z,1.80
2022-09-26T11:57:08.803Z,1.50
2022-09-26T12:00:07.222Z,1.77
2022-09-26T12:03:10.375Z,1.83
2022-09-26T12:06:01.959Z,1.90
2022-09-26T12:08:58.082Z,1.50
2022-09-26T12:11:45.821Z,1.63
2022-09-26T12:14:40.876Z,1.48
2022-09-26T12:17:36.400Z,1.45
2022-09-26T12:20:30.811Z,1.27
2022-09-26T12:23:12.861Z,0.98
2022-09-26T12:25:56.040Z,1.00
2022-09-26T12:28:54.118Z,1.00
2022-09-26T12:31:43.931Z,1.08
2022-09-26T12:34:37.989Z,1.05
2022-09-26T12:37:41.801Z,1.20
2022-09-26T12:40:40.312Z,0.90
2022-09-26T12:43:26.478Z,1.00
2022-09-26T12:46:10.261Z,1.70
2022-09-26T12:49:07.844Z,1.33
2022-09-26T12:51:55.797Z,0.88
2022-09-26T12:54:42.467Z,1.10
2022-09-26T12:57:33.811Z,0.80
2022-09-26T13:00:22.396Z,1.55
2022-09-26T13:03:13.007Z,1.10
2022-09-26T13:06:08.315Z,1.10
2022-09-26T13:08:57.665Z,1.10
2022-09-26T13:11:56.952Z,1.00
2022-09-26T13:14:45.634Z,1.20
2022-09-26T13:17:21.926Z,1.10
2022-09-26T13:20:04.230Z,1.55
2022-09-26T13:22:41.600Z,1.30
2022-09-26T13:25:21.516Z,1.40
2022-09-26T13:27:59.022Z,1.80
2022-09-26T13:30:33.702Z,1.63
2022-09-26T13:33:21.577Z,5.45
2022-09-26T13:35:51.942Z,1.80
2022-09-26T13:38:36.924Z,1.50
2022-09-26T13:41:36.894Z,1.33
2022-09-26T13:44:18.689Z,1.50
2022-09-26T13:47:17.039Z,1.42
2022-09-26T13:50:20.380Z,1.25
2022-09-26T13:53:04.389Z,1.30
2022-09-26T13:55:32.161Z,1.60
2022-09-26T13:58:07.717Z,1.23
2022-09-26T14:00:41.262Z,1.30
2022-09-26T14:03:36.194Z,1.30
2022-09-26T14:06:26.149Z,1.55
2022-09-26T14:09:29.419Z,1.30
2022-09-26T14:12:17.791Z,1.33
2022-09-26T14:14:51.446Z,1.10
2022-09-26T14:17:54.560Z,1.13
2022-09-26T14:20:28.265Z,1.17
2022-09-26T14:22:57.910Z,1.20
2022-09-26T14:25:54.095Z,1.33
2022-09-26T14:28:32.003Z,1.10
2022-09-26T14:31:30.729Z,1.90
2022-09-26T14:34:19.821Z,2.25
2022-09-26T14:36:53.631Z,1.13
2022-09-26T14:39:41.269Z,1.40
2022-09-26T14:42:16.096Z,1.30
2022-09-26T14:44:56.213Z,1.75
2022-09-26T14:47:27.444Z,1.52
2022-09-26T14:50:03.676Z,1.73
2022-09-26T14:52:33.236Z,1.85
2022-09-26T14:55:06.523Z,1.55
2022-09-26T15:00:03.935Z,1.92
2022-09-26T15:02:41.491Z,1.80
2022-09-26T15:05:23.945Z,1.40
2022-09-26T15:07:55.470Z,1.40
2022-09-26T15:10:28.654Z,2.75
2022-09-26T15:15:59.426Z,2.25
2022-09-26T15:18:35.911Z,2.20
2022-09-26T15:21:27.163Z,1.88
2022-09-26T15:23:57.141Z,1.95
2022-09-26T15:26:32.664Z,2.60
2022-09-26T15:29:01.879Z,2.85
2022-09-26T15:31:42.897Z,2.45
2022-09-26T15:34:19.137Z,2.70
2022-09-26T15:36:54.479Z,2.95
2022-09-26T15:39:42.581Z,3.25
2022-09-26T15:42:39.737Z,2.70
2022-09-26T15:45:28.037Z,3.15
2022-09-26T15:47:58.130Z,3.10
2022-09-26T15:50:40.666Z,3.03
2022-09-26T15:53:36.823Z,3.00
2022-09-26T15:56:10.336Z,2.88
2022-09-26T15:58:50.954Z,2.83
2022-09-26T16:01:22.345Z,3.08
2022-09-26T16:04:03.788Z,3.10
2022-09-26T16:06:42.245Z,3.10
2022-09-26T16:09:31.084Z,3.10
2022-09-26T16:12:09.340Z,2.75
2022-09-26T16:14:47.926Z,2.88
2022-09-26T16:17:28.305Z,2.60
2022-09-26T16:19:58.936Z,2.65
2022-09-26T16:22:45.950Z,3.92
2022-09-26T16:25:32.915Z,2.85
2022-09-26T16:28:23.538Z,2.30
2022-09-26T16:31:10.780Z,3.13
2022-09-26T16:33:40.705Z,2.42
2022-09-26T16:36:22.215Z,2.97
2022-09-26T16:38:56.520Z,2.60
2022-09-26T16:42:02.843Z,2.28
2022-09-26T16:44:40.691Z,3.33
2022-09-26T16:47:40.952Z,3.70
2022-09-26T16:50:29.082Z,3.60
2022-09-26T16:52:58.288Z,3.88
2022-09-26T16:55:27.943Z,4.00
2022-09-26T16:57:59.284Z,4.50
2022-09-26T17:00:51.987Z,4.10
2022-09-26T17:03:25.194Z,3.67
2022-09-26T17:05:56.156Z,5.18
2022-09-26T17:08:27.170Z,4.28
2022-09-26T17:10:56.817Z,4.10
2022-09-26T17:13:27.573Z,4.32
2022-09-26T17:16:01.071Z,3.92
2022-09-26T17:18:32.684Z,3.40
2022-09-26T17:21:01.557Z,3.60
2022-09-26T17:23:42.056Z,4.43
2022-09-26T17:26:20.364Z,3.85
2022-09-26T17:28:49.144Z,3.90
2022-09-26T17:31:20.711Z,3.33
2022-09-26T17:33:53.091Z,3.42
2022-09-26T17:36:26.523Z,3.73
2022-09-26T17:38:56.019Z,3.50
2022-09-26T17:41:30.579Z,3.20
2022-09-26T17:44:01.188Z,3.22
2022-09-26T17:46:30.599Z,3.40
2022-09-26T17:49:00.200Z,3.42
2022-09-26T17:51:29.731Z,3.50
2022-09-26T17:53:59.650Z,3.20
2022-09-26T17:56:28.206Z,3.47
2022-09-26T17:58:57.644Z,3.10
2022-09-26T18:01:29.085Z,3.33
2022-09-26T18:04:03.185Z,3.50
2022-09-26T18:06:33.630Z,3.72
2022-09-26T18:09:07.824Z,3.53
2022-09-26T18:11:38.060Z,4.00
2022-09-26T18:14:08.599Z,3.90
2022-09-26T18:16:37.013Z,3.80
2022-09-26T18:19:07.684Z,3.63
2022-09-26T18:21:40.391Z,3.70
2022-09-26T18:24:19.221Z,4.30
2022-09-26T18:26:51.485Z,4.00
2022-09-26T18:29:31.771Z,3.60
2022-09-26T18:32:02.058Z,3.83
2022-09-26T18:34:31.152Z,4.00
2022-09-26T18:37:01.356Z,4.50
2022-09-26T18:39:31.228Z,4.25
2022-09-26T18:42:05.008Z,4.22
2022-09-26T18:44:38.915Z,4.40
2022-09-26T18:47:15.234Z,4.40
2022-09-26T18:49:48.319Z,4.13
2022-09-26T18:52:18.572Z,3.75
2022-09-26T18:55:08.222Z,4.25
2022-09-26T18:57:52.027Z,4.20
2022-09-26T19:00:20.318Z,3.80
2022-09-26T19:02:51.525Z,4.20
2022-09-26T19:05:20.589Z,4.70
2022-09-26T19:07:49.060Z,4.68
2022-09-26T19:10:20.547Z,4.40
2022-09-26T19:12:49.206Z,4.40
2022-09-26T19:15:19.508Z,4.68
2022-09-26T19:17:50.755Z,4.95
2022-09-26T19:20:20.086Z,5.10
2022-09-26T19:22:48.565Z,4.47
2022-09-26T19:25:17.202Z,4.93
2022-09-26T19:27:53.394Z,4.65
2022-09-26T19:30:23.261Z,4.78
2022-09-26T19:32:54.609Z,4.50
2022-09-26T19:35:40.497Z,4.88
2022-09-26T19:38:28.052Z,5.13
2022-09-26T19:40:57.249Z,5.00
2022-09-26T19:43:25.831Z,7.82
2022-09-26T19:45:55.273Z,5.55
2022-09-26T19:48:24.980Z,5.75
2022-09-26T19:50:54.371Z,4.90
2022-09-26T19:53:26.037Z,5.53
2022-09-26T19:55:56.406Z,4.28
2022-09-26T19:58:26.721Z,6.40
2022-09-26T20:00:58.014Z,6.00
2022-09-26T20:03:32.093Z,5.47
2022-09-26T20:05:59.981Z,5.90
2022-09-26T20:08:28.227Z,5.65
2022-09-26T20:10:57.139Z,5.55
2022-09-26T20:13:25.247Z,6.10
2022-09-26T20:15:53.385Z,5.97
2022-09-26T20:18:24.370Z,6.45
2022-09-26T20:20:55.232Z,6.30
2022-09-26T20:23:26.382Z,6.20
2022-09-26T20:25:56.052Z,6.10
2022-09-26T20:28:24.222Z,8.93
2022-09-26T20:30:52.171Z,5.40
2022-09-26T20:33:22.732Z,5.38
2022-09-26T20:36:00.259Z,4.80
2022-09-26T20:38:41.777Z,5.55
2022-09-26T20:41:19.692Z,5.53
2022-09-26T20:43:50.685Z,5.93
2022-09-26T20:46:22.388Z,6.85
2022-09-26T20:48:50.718Z,6.20
2022-09-26T20:51:27.412Z,6.05
2022-09-26T20:53:54.981Z,5.28
2022-09-26T20:56:22.624Z,5.07
2022-09-26T20:58:50.502Z,5.05
2022-09-26T21:01:19.849Z,4.80
2022-09-26T21:03:52.254Z,5.13
2022-09-26T21:06:24.139Z,4.63
2022-09-26T21:08:51.727Z,5.82
2022-09-26T21:11:21.125Z,4.88
2022-09-26T21:13:49.814Z,4.75
2022-09-26T21:16:19.989Z,5.53
2022-09-26T21:18:51.608Z,5.38
2022-09-26T21:21:23.774Z,5.03
2022-09-26T21:23:51.905Z,4.85
2022-09-26T21:26:22.383Z,5.05
2022-09-26T21:28:51.501Z,5.65
2022-09-26T21:31:31.262Z,5.82
2022-09-26T21:34:00.483Z,5.72
2022-09-26T21:36:35.019Z,5.75
2022-09-26T21:39:03.714Z,5.30
2022-09-26T21:41:31.535Z,5.95
2022-09-26T21:44:05.076Z,5.43
2022-09-26T21:46:32.763Z,5.50
2022-09-26T21:49:00.467Z,6.15
2022-09-26T21:51:28.933Z,5.70
2022-09-26T21:54:02.994Z,6.03
2022-09-26T21:56:33.805Z,5.25
2022-09-26T21:59:01.492Z,4.88
2022-09-26T22:01:29.550Z,5.53
2022-09-26T22:03:57.280Z,4.93
2022-09-26T22:06:25.041Z,5.60
2022-09-26T22:08:52.731Z,5.47
2022-09-26T22:11:20.356Z,5.22
2022-09-26T22:13:48.239Z,5.45
2022-09-26T22:16:16.092Z,5.00
2022-09-26T22:18:43.914Z,5.05
2022-09-26T22:21:12.068Z,4.65
2022-09-26T22:23:39.867Z,4.57
2022-09-26T22:26:07.703Z,5.75
2022-09-26T22:28:35.366Z,7.75
2022-09-26T22:31:04.422Z,5.15
2022-09-26T22:33:32.239Z,6.38
2022-09-26T22:35:59.921Z,6.75
2022-09-26T22:38:27.472Z,5.82
2022-09-26T22:40:59.951Z,7.60
2022-09-26T22:43:28.627Z,9.52
2022-09-26T22:46:08.086Z,7.70
2022-09-26T22:48:38.875Z,5.35
2022-09-26T22:51:07.438Z,5.13
2022-09-26T22:53:37.720Z,5.32
2022-09-26T22:56:07.138Z,5.18
2022-09-26T22:58:38.428Z,5.13
2022-09-26T23:01:09.070Z,5.65
2022-09-26T23:03:37.829Z,6.68
2022-09-26T23:06:06.268Z,6.18
2022-09-26T23:08:34.566Z,5.10
2022-09-26T23:11:03.170Z,6.18
2022-09-26T23:13:32.220Z,6.43
2022-09-26T23:16:17.489Z,7.28
2022-09-26T23:18:45.466Z,9.52
2022-09-26T23:21:16.438Z,8.48
2022-09-26T23:23:46.145Z,7.45
2022-09-26T23:26:22.303Z,5.93
2022-09-26T23:28:52.000Z,5.78
2022-09-26T23:31:20.495Z,5.18
2022-09-26T23:33:48.436Z,5.30
2022-09-26T23:36:16.479Z,4.90
2022-09-26T23:38:45.401Z,5.10
2022-09-26T23:41:13.929Z,4.90
2022-09-26T23:43:41.883Z,5.68
2022-09-26T23:46:10.757Z,5.25
2022-09-26T23:48:40.119Z,5.07
2022-09-26T23:51:08.269Z,4.97
2022-09-26T23:53:36.057Z,5.28
2022-09-26T23:56:09.709Z,4.82
2022-09-26T23:58:38.085Z,5.10
